Nave Celeste — VRZH4 — position and weather

sailwx.info

Track history (hours):
 
Tides and Currents Weather Stations Pressure Air Temp Water Temp Dewpoint Dewpoint Depression Visibility Wind Speed Wind Dir Waves Ship Positions

Nave Celeste

Last reported at 2017-May-06 07:58 UTC. Time now 2017-May-29 02:03 UTC.
Position N 13°27' W 018°05'.
Warning: this ship's position is 22 days out of date.

Length 332 m; draft 11 m.

Type: Tanker. MMSI: 477974000.

Date/timePositionNaut miles runAvg speedWind from/ knotsBaromVisibWave heightAir tempDewpointWater temp
2017-May-06 07:58N 13°27' W 018°05'612.2
2017-May-06 07:30N 13°33' W 018°05'611.9
2017-May-06 06:58N 13°39' W 018°05'2312.3
2017-May-06 05:07N 14°02' W 018°07'312.6
2017-May-06 04:50N 14°05' W 018°08'412.5
2017-May-06 04:30N 14°10' W 018°08'712.8
2017-May-06 03:59N 14°16' W 018°08'612.5
2017-May-06 03:30N 14°22' W 018°09'3812.0
2017-May-06 00:21N 15°00' W 018°06'412.7
2017-May-06 00:00N 15°04' W 018°06'1212.7
2017-May-05 23:02N 15°17' W 018°05'  
2017-May-03 14:04N 27°12' W 016°35'3012.6
2017-May-03 11:44N 27°41' W 016°26'312.8
2017-May-03 11:30N 27°44' W 016°26'612.8
2017-May-03 11:00N 27°50' W 016°23'712.9
2017-May-03 10:29N 27°56' W 016°20'813.0
2017-May-03 09:53N 28°03' W 016°17'613.1
2017-May-03 09:25N 28°08' W 016°12'1113.3
2017-May-03 08:37N 28°16' W 016°05'113.4
2017-May-03 08:30N 28°17' W 016°04'713.4
2017-May-03 08:00N 28°22' W 015°59'713.1
2017-May-03 07:30N 28°28' W 015°55'612.9
2017-May-03 07:00N 28°33' W 015°50'713.0
2017-May-03 06:30N 28°38' W 015°45'713.0
2017-May-03 06:00N 28°43' W 015°41'712.9
2017-May-03 05:30N 28°48' W 015°36'612.9
2017-May-03 05:00N 28°53' W 015°31'612.9
2017-May-03 04:30N 28°58' W 015°27'712.6
2017-May-03 03:58N 29°03' W 015°22'612.7
2017-May-03 03:30N 29°08' W 015°18'1012.9
2017-May-03 02:43N 29°18' W 015°15'313.0
2017-May-03 02:30N 29°20' W 015°14'813.0
2017-May-03 01:55N 29°28' W 015°12'813.1
2017-May-03 01:20N 29°35' W 015°09'513.0
2017-May-03 00:56N 29°40' W 015°07'613.3
2017-May-03 00:30N 29°45' W 015°05'813.2
2017-May-02 23:55N 29°53' W 015°03'813.2
2017-May-02 23:21N 29°60' W 015°00'513.1
2017-May-02 23:00N 30°04' W 014°58'25313.2
2017-May-02 03:50N 34°06' W 013°31'1113.2
2017-May-02 02:59N 34°17' W 013°27'1113.4
2017-May-02 02:10N 34°27' W 013°22'  
2017-Apr-28 22:44N 49°00' W 005°34'415.2
2017-Apr-28 22:29N 49°02' W 005°29'1214.7
2017-Apr-28 21:41N 49°08' W 005°13'513.3
2017-Apr-28 21:17N 49°10' W 005°06'713.3
2017-Apr-28 20:44N 49°14' W 004°57'313.0
2017-Apr-28 20:30N 49°16' W 004°53'712.4
2017-Apr-28 19:54N 49°20' W 004°43'611.8
2017-Apr-28 19:23N 49°24' W 004°36'611.3
2017-Apr-28 18:53N 49°27' W 004°28'411.1
2017-Apr-28 18:30N 49°29' W 004°23'711.1
2017-Apr-28 17:53N 49°33' W 004°14'410.9
2017-Apr-28 17:28N 49°36' W 004°09'511.0
2017-Apr-28 17:00N 49°39' W 004°02'611.6
2017-Apr-28 16:30N 49°42' W 003°55'612.3
2017-Apr-28 16:00N 49°46' W 003°48'712.9
2017-Apr-28 15:30N 49°50' W 003°40'713.8
2017-Apr-28 15:01N 49°52' W 003°30'1414.4
2017-Apr-28 14:00N 49°56' W 003°08'714.6
2017-Apr-28 13:30N 49°58' W 002°57'714.6
2017-Apr-28 13:01N 50°01' W 002°47'714.5
2017-Apr-28 12:31N 50°03' W 002°36'713.6
2017-Apr-28 12:00N 50°05' W 002°26'612.6
2017-Apr-28 11:30N 50°07' W 002°16'35 9.7
2017-Apr-28 07:56N 50°15' W 001°24'4 9.8
2017-Apr-28 07:29N 50°16' W 001°18'610.6
2017-Apr-28 06:57N 50°18' W 001°09'611.7
2017-Apr-28 06:29N 50°19' W 001°00'713.4
2017-Apr-28 06:00N 50°21' W 000°51'714.2
2017-Apr-28 05:30N 50°23' W 000°40'714.6
2017-Apr-28 05:00N 50°26' W 000°30'713.8
2017-Apr-28 04:30N 50°27' W 000°19'714.5
2017-Apr-28 04:00N 50°29' W 000°08'714.5
2017-Apr-28 03:30N 50°31' E 000°03'714.4
2017-Apr-28 03:00N 50°32' E 000°14'714.1
2017-Apr-28 02:31N 50°34' E 000°25'713.9
2017-Apr-28 02:01N 50°36' E 000°35'713.9
2017-Apr-28 01:30N 50°41' E 000°43'713.2
2017-Apr-28 01:00N 50°45' E 000°51'612.3
2017-Apr-28 00:30N 50°49' E 000°59'611.1
2017-Apr-28 00:00N 50°53' E 001°06'611.0
2017-Apr-27 23:30N 50°56' E 001°13'510.6
2017-Apr-27 23:00N 50°59' E 001°19'611.4
2017-Apr-27 22:30N 51°03' E 001°26'713.5
2017-Apr-27 22:00N 51°07' E 001°34'714.5
2017-Apr-27 21:31N 51°12' E 001°43'714.9
2017-Apr-27 21:00N 51°18' E 001°51'815.2
2017-Apr-27 20:30N 51°24' E 001°56'815.9
2017-Apr-27 20:00N 51°31' E 002°04'815.5
2017-Apr-27 19:30N 51°37' E 002°12'714.8
2017-Apr-27 19:00N 51°42' E 002°20'4711.8
2017-Apr-27 15:01N 52°04' E 003°28'011.6
2017-Apr-27 15:00N 52°04' E 003°28'1110.9
2017-Apr-27 14:01N 52°02' E 003°45'510.2
2017-Apr-27 13:30N 52°03' E 003°53'2 3.2
2017-Apr-27 13:01N 52°02' E 003°55'5 9.1
2017-Apr-27 12:30N 51°60' E 004°02'4 7.6
2017-Apr-27 12:00N 51°58' E 004°07'1 2.0
2017-Apr-27 11:29N 51°57' E 004°08'0 0.0
2017-Apr-27 10:56N 51°57' E 004°08'0 0.0
2017-Apr-27 10:29N 51°57' E 004°08'0 0.0
2017-Apr-27 09:59N 51°57' E 004°08'0 0.0
2017-Apr-27 09:29N 51°57' E 004°08'0 0.0
2017-Apr-27 08:59N 51°57' E 004°08'0 0.0
2017-Apr-27 08:29N 51°57' E 004°08'0 0.0
2017-Apr-27 07:59N 51°57' E 004°08'0 0.0
2017-Apr-27 07:29N 51°57' E 004°08'0 0.0
2017-Apr-27 06:59N 51°57' E 004°08'0 0.0
2017-Apr-27 06:26N 51°57' E 004°08'0 0.0
2017-Apr-27 05:59N 51°57' E 004°08'0 0.0
2017-Apr-27 05:29N 51°57' E 004°08'0 0.0
2017-Apr-27 04:59N 51°57' E 004°08'0 0.0
2017-Apr-27 04:29N 51°57' E 004°08'0 0.0
2017-Apr-27 03:59N 51°57' E 004°08'0 0.0
2017-Apr-27 03:29N 51°57' E 004°08'0 0.0
2017-Apr-27 02:59N 51°57' E 004°08'0 0.0
2017-Apr-27 02:29N 51°57' E 004°08'0 0.0
2017-Apr-27 01:59N 51°57' E 004°08'0 0.0
2017-Apr-27 01:26N 51°57' E 004°08'0 0.0
2017-Apr-27 00:56N 51°57' E 004°08'0 0.0
2017-Apr-27 00:29N 51°57' E 004°08'0 0.0
2017-Apr-26 23:59N 51°57' E 004°08'0 0.0
2017-Apr-26 23:29N 51°57' E 004°08'0 0.0
2017-Apr-26 22:59N 51°57' E 004°08'0 0.0
2017-Apr-26 22:29N 51°57' E 004°08'0 0.0
2017-Apr-26 21:59N 51°57' E 004°08'0 0.0
2017-Apr-26 21:29N 51°57' E 004°08'0 0.0
2017-Apr-26 20:59N 51°57' E 004°08'0 0.0
2017-Apr-26 20:29N 51°57' E 004°08'0 0.0
2017-Apr-26 19:59N 51°57' E 004°08'0 0.0
2017-Apr-26 19:29N 51°57' E 004°08'0 0.0
2017-Apr-26 18:59N 51°57' E 004°08'0 0.0
2017-Apr-26 18:29N 51°57' E 004°08'0 0.0
2017-Apr-26 17:59N 51°57' E 004°08'0 0.0
2017-Apr-26 17:29N 51°57' E 004°08'0 0.0
2017-Apr-26 16:56N 51°57' E 004°08'0 0.0
2017-Apr-26 16:29N 51°57' E 004°08'0 0.0
2017-Apr-26 15:59N 51°57' E 004°08'0 0.0
2017-Apr-26 15:29N 51°57' E 004°08'0 0.0
2017-Apr-26 14:59N 51°57' E 004°08'0 0.0
2017-Apr-26 14:29N 51°57' E 004°08'0 0.0
2017-Apr-26 13:26N 51°57' E 004°08'0 0.0
2017-Apr-26 12:56N 51°57' E 004°08'0 0.0
2017-Apr-26 12:29N 51°57' E 004°08'0 0.0
2017-Apr-26 11:59N 51°57' E 004°08'0 0.0
2017-Apr-26 11:29N 51°57' E 004°08'0 0.0
2017-Apr-26 10:59N 51°57' E 004°08'0 0.0
2017-Apr-26 10:29N 51°57' E 004°08'0 0.0
2017-Apr-26 09:59N 51°57' E 004°08'0 0.0
2017-Apr-26 09:29N 51°57' E 004°08'0 0.0
2017-Apr-26 08:59N 51°57' E 004°08'0 0.0
2017-Apr-26 08:29N 51°57' E 004°08'0 0.0
2017-Apr-26 07:59N 51°57' E 004°08'  
Track history (hours):
 
Tides and Currents Weather Stations Pressure Air Temp Water Temp Dewpoint Dewpoint Depression Visibility Wind Speed Wind Dir Waves Ship Positions

Nave Celeste

Last reported at 2017-May-06 07:58 UTC. Time now 2017-May-29 02:03 UTC.
Position N 13°27' W 018°05'.
Warning: this ship's position is 22 days out of date.

Length 332 m; draft 11 m.

Type: Tanker. MMSI: 477974000.

Date/timePositionNaut miles runAvg speedWind from/ knotsBaromVisibWave heightAir tempDewpointWater temp
2017-May-06 07:58N 13°27' W 018°05'612.2
2017-May-06 07:30N 13°33' W 018°05'611.9
2017-May-06 06:58N 13°39' W 018°05'2312.3
2017-May-06 05:07N 14°02' W 018°07'312.6
2017-May-06 04:50N 14°05' W 018°08'412.5
2017-May-06 04:30N 14°10' W 018°08'712.8
2017-May-06 03:59N 14°16' W 018°08'612.5
2017-May-06 03:30N 14°22' W 018°09'3812.0
2017-May-06 00:21N 15°00' W 018°06'412.7
2017-May-06 00:00N 15°04' W 018°06'1212.7
2017-May-05 23:02N 15°17' W 018°05'  
2017-May-03 14:04N 27°12' W 016°35'3012.6
2017-May-03 11:44N 27°41' W 016°26'312.8
2017-May-03 11:30N 27°44' W 016°26'612.8
2017-May-03 11:00N 27°50' W 016°23'712.9
2017-May-03 10:29N 27°56' W 016°20'813.0
2017-May-03 09:53N 28°03' W 016°17'613.1
2017-May-03 09:25N 28°08' W 016°12'1113.3
2017-May-03 08:37N 28°16' W 016°05'113.4
2017-May-03 08:30N 28°17' W 016°04'713.4
2017-May-03 08:00N 28°22' W 015°59'713.1
2017-May-03 07:30N 28°28' W 015°55'612.9
2017-May-03 07:00N 28°33' W 015°50'713.0
2017-May-03 06:30N 28°38' W 015°45'713.0
2017-May-03 06:00N 28°43' W 015°41'712.9
2017-May-03 05:30N 28°48' W 015°36'612.9
2017-May-03 05:00N 28°53' W 015°31'612.9
2017-May-03 04:30N 28°58' W 015°27'712.6
2017-May-03 03:58N 29°03' W 015°22'612.7
2017-May-03 03:30N 29°08' W 015°18'1012.9
2017-May-03 02:43N 29°18' W 015°15'313.0
2017-May-03 02:30N 29°20' W 015°14'813.0
2017-May-03 01:55N 29°28' W 015°12'813.1
2017-May-03 01:20N 29°35' W 015°09'513.0
2017-May-03 00:56N 29°40' W 015°07'613.3
2017-May-03 00:30N 29°45' W 015°05'813.2
2017-May-02 23:55N 29°53' W 015°03'813.2
2017-May-02 23:21N 29°60' W 015°00'513.1
2017-May-02 23:00N 30°04' W 014°58'25313.2
2017-May-02 03:50N 34°06' W 013°31'1113.2
2017-May-02 02:59N 34°17' W 013°27'1113.4
2017-May-02 02:10N 34°27' W 013°22'  
2017-Apr-28 22:44N 49°00' W 005°34'415.2
2017-Apr-28 22:29N 49°02' W 005°29'1214.7
2017-Apr-28 21:41N 49°08' W 005°13'513.3
2017-Apr-28 21:17N 49°10' W 005°06'713.3
2017-Apr-28 20:44N 49°14' W 004°57'313.0
2017-Apr-28 20:30N 49°16' W 004°53'712.4
2017-Apr-28 19:54N 49°20' W 004°43'611.8
2017-Apr-28 19:23N 49°24' W 004°36'611.3
2017-Apr-28 18:53N 49°27' W 004°28'411.1
2017-Apr-28 18:30N 49°29' W 004°23'711.1
2017-Apr-28 17:53N 49°33' W 004°14'410.9
2017-Apr-28 17:28N 49°36' W 004°09'511.0
2017-Apr-28 17:00N 49°39' W 004°02'611.6
2017-Apr-28 16:30N 49°42' W 003°55'612.3
2017-Apr-28 16:00N 49°46' W 003°48'712.9
2017-Apr-28 15:30N 49°50' W 003°40'713.8
2017-Apr-28 15:01N 49°52' W 003°30'1414.4
2017-Apr-28 14:00N 49°56' W 003°08'714.6
2017-Apr-28 13:30N 49°58' W 002°57'714.6
2017-Apr-28 13:01N 50°01' W 002°47'714.5
2017-Apr-28 12:31N 50°03' W 002°36'713.6
2017-Apr-28 12:00N 50°05' W 002°26'612.6
2017-Apr-28 11:30N 50°07' W 002°16'35 9.7
2017-Apr-28 07:56N 50°15' W 001°24'4 9.8
2017-Apr-28 07:29N 50°16' W 001°18'610.6
2017-Apr-28 06:57N 50°18' W 001°09'611.7
2017-Apr-28 06:29N 50°19' W 001°00'713.4
2017-Apr-28 06:00N 50°21' W 000°51'714.2
2017-Apr-28 05:30N 50°23' W 000°40'714.6
2017-Apr-28 05:00N 50°26' W 000°30'713.8
2017-Apr-28 04:30N 50°27' W 000°19'714.5
2017-Apr-28 04:00N 50°29' W 000°08'714.5
2017-Apr-28 03:30N 50°31' E 000°03'714.4
2017-Apr-28 03:00N 50°32' E 000°14'714.1
2017-Apr-28 02:31N 50°34' E 000°25'713.9
2017-Apr-28 02:01N 50°36' E 000°35'713.9
2017-Apr-28 01:30N 50°41' E 000°43'713.2
2017-Apr-28 01:00N 50°45' E 000°51'612.3
2017-Apr-28 00:30N 50°49' E 000°59'611.1
2017-Apr-28 00:00N 50°53' E 001°06'611.0
2017-Apr-27 23:30N 50°56' E 001°13'510.6
2017-Apr-27 23:00N 50°59' E 001°19'611.4
2017-Apr-27 22:30N 51°03' E 001°26'713.5
2017-Apr-27 22:00N 51°07' E 001°34'714.5
2017-Apr-27 21:31N 51°12' E 001°43'714.9
2017-Apr-27 21:00N 51°18' E 001°51'815.2
2017-Apr-27 20:30N 51°24' E 001°56'815.9
2017-Apr-27 20:00N 51°31' E 002°04'815.5
2017-Apr-27 19:30N 51°37' E 002°12'714.8
2017-Apr-27 19:00N 51°42' E 002°20'4711.8
2017-Apr-27 15:01N 52°04' E 003°28'011.6
2017-Apr-27 15:00N 52°04' E 003°28'1110.9
2017-Apr-27 14:01N 52°02' E 003°45'510.2
2017-Apr-27 13:30N 52°03' E 003°53'2 3.2
2017-Apr-27 13:01N 52°02' E 003°55'5 9.1
2017-Apr-27 12:30N 51°60' E 004°02'4 7.6
2017-Apr-27 12:00N 51°58' E 004°07'1 2.0
2017-Apr-27 11:29N 51°57' E 004°08'0 0.0
2017-Apr-27 10:56N 51°57' E 004°08'0 0.0
2017-Apr-27 10:29N 51°57' E 004°08'0 0.0
2017-Apr-27 09:59N 51°57' E 004°08'0 0.0
2017-Apr-27 09:29N 51°57' E 004°08'0 0.0
2017-Apr-27 08:59N 51°57' E 004°08'0 0.0
2017-Apr-27 08:29N 51°57' E 004°08'0 0.0
2017-Apr-27 07:59N 51°57' E 004°08'0 0.0
2017-Apr-27 07:29N 51°57' E 004°08'0 0.0
2017-Apr-27 06:59N 51°57' E 004°08'0 0.0
2017-Apr-27 06:26N 51°57' E 004°08'0 0.0
2017-Apr-27 05:59N 51°57' E 004°08'0 0.0
2017-Apr-27 05:29N 51°57' E 004°08'0 0.0
2017-Apr-27 04:59N 51°57' E 004°08'0 0.0
2017-Apr-27 04:29N 51°57' E 004°08'0 0.0
2017-Apr-27 03:59N 51°57' E 004°08'0 0.0
2017-Apr-27 03:29N 51°57' E 004°08'0 0.0
2017-Apr-27 02:59N 51°57' E 004°08'0 0.0
2017-Apr-27 02:29N 51°57' E 004°08'0 0.0
2017-Apr-27 01:59N 51°57' E 004°08'0 0.0
2017-Apr-27 01:26N 51°57' E 004°08'0 0.0
2017-Apr-27 00:56N 51°57' E 004°08'0 0.0
2017-Apr-27 00:29N 51°57' E 004°08'0 0.0
2017-Apr-26 23:59N 51°57' E 004°08'0 0.0
2017-Apr-26 23:29N 51°57' E 004°08'0 0.0
2017-Apr-26 22:59N 51°57' E 004°08'0 0.0
2017-Apr-26 22:29N 51°57' E 004°08'0 0.0
2017-Apr-26 21:59N 51°57' E 004°08'0 0.0
2017-Apr-26 21:29N 51°57' E 004°08'0 0.0
2017-Apr-26 20:59N 51°57' E 004°08'0 0.0
2017-Apr-26 20:29N 51°57' E 004°08'0 0.0
2017-Apr-26 19:59N 51°57' E 004°08'0 0.0
2017-Apr-26 19:29N 51°57' E 004°08'0 0.0
2017-Apr-26 18:59N 51°57' E 004°08'0 0.0
2017-Apr-26 18:29N 51°57' E 004°08'0 0.0
2017-Apr-26 17:59N 51°57' E 004°08'0 0.0
2017-Apr-26 17:29N 51°57' E 004°08'0 0.0
2017-Apr-26 16:56N 51°57' E 004°08'0 0.0
2017-Apr-26 16:29N 51°57' E 004°08'0 0.0
2017-Apr-26 15:59N 51°57' E 004°08'0 0.0
2017-Apr-26 15:29N 51°57' E 004°08'0 0.0
2017-Apr-26 14:59N 51°57' E 004°08'0 0.0
2017-Apr-26 14:29N 51°57' E 004°08'0 0.0
2017-Apr-26 13:26N 51°57' E 004°08'0 0.0
2017-Apr-26 12:56N 51°57' E 004°08'0 0.0
2017-Apr-26 12:29N 51°57' E 004°08'0 0.0
2017-Apr-26 11:59N 51°57' E 004°08'0 0.0
2017-Apr-26 11:29N 51°57' E 004°08'0 0.0
2017-Apr-26 10:59N 51°57' E 004°08'0 0.0
2017-Apr-26 10:29N 51°57' E 004°08'0 0.0
2017-Apr-26 09:59N 51°57' E 004°08'0 0.0
2017-Apr-26 09:29N 51°57' E 004°08'0 0.0
2017-Apr-26 08:59N 51°57' E 004°08'0 0.0
2017-Apr-26 08:29N 51°57' E 004°08'0 0.0
2017-Apr-26 07:59N 51°57' E 004°08'  

Dump ship's entire track history